createdAt,value
2022-11-23T00:00:27.764Z,6.37
2022-11-23T00:01:30.929Z,6.42
2022-11-23T00:02:11.826Z,6.43
2022-11-23T00:02:51.943Z,6.45
2022-11-23T00:03:31.745Z,6.34
2022-11-23T00:04:22.778Z,6.47
2022-11-23T00:05:16.793Z,6.49
2022-11-23T00:06:10.788Z,6.49
2022-11-23T00:07:04.836Z,6.46
2022-11-23T00:07:58.775Z,6.44
2022-11-23T00:08:53.854Z,6.47
2022-11-23T00:09:40.791Z,6.38
2022-11-23T00:10:14.798Z,6.40
2022-11-23T00:11:05.782Z,6.47
2022-11-23T00:11:41.818Z,6.46
2022-11-23T00:12:28.783Z,6.46
2022-11-23T00:13:02.983Z,6.44
2022-11-23T00:13:50.767Z,6.43
2022-11-23T00:14:24.798Z,6.45
2022-11-23T00:15:05.762Z,6.45
2022-11-23T00:15:47.905Z,6.46
2022-11-23T00:16:31.727Z,6.43
2022-11-23T00:17:11.806Z,6.42
2022-11-23T00:17:54.770Z,6.43
2022-11-23T00:18:34.806Z,6.44
2022-11-23T00:19:15.740Z,6.36
2022-11-23T00:19:55.880Z,6.41
2022-11-23T00:20:36.761Z,6.33
2022-11-23T00:21:22.853Z,6.36
2022-11-23T00:22:02.761Z,6.39
2022-11-23T00:22:44.088Z,6.34
2022-11-23T00:23:24.766Z,6.30
2022-11-23T00:24:04.845Z,6.26
2022-11-23T00:24:44.795Z,6.33
2022-11-23T00:25:25.851Z,6.31
2022-11-23T00:26:05.764Z,6.25
2022-11-23T00:26:45.776Z,6.27
2022-11-23T00:27:25.729Z,6.30
2022-11-23T00:28:05.855Z,6.29
2022-11-23T00:28:46.724Z,6.24
2022-11-23T00:29:27.344Z,6.32
2022-11-23T00:30:08.718Z,6.27
2022-11-23T00:30:49.146Z,6.24
2022-11-23T00:31:29.794Z,6.22
2022-11-23T00:32:10.799Z,6.27
2022-11-23T00:32:50.731Z,6.26
2022-11-23T00:33:30.862Z,6.27
2022-11-23T00:34:11.740Z,6.26
2022-11-23T00:34:53.899Z,6.26
2022-11-23T00:35:34.881Z,6.23
2022-11-23T00:36:21.862Z,6.28
2022-11-23T00:37:01.745Z,6.25
2022-11-23T00:37:41.985Z,6.24
2022-11-23T00:38:21.756Z,6.13
2022-11-23T00:39:03.025Z,6.17
2022-11-23T00:39:43.734Z,6.21
2022-11-23T00:40:24.115Z,6.24
2022-11-23T00:41:10.723Z,6.23
2022-11-23T00:41:50.843Z,6.19
2022-11-23T00:42:35.179Z,6.21
2022-11-23T00:43:17.814Z,6.16
2022-11-23T00:43:57.732Z,6.16
2022-11-23T00:44:37.912Z,6.18
2022-11-23T00:45:18.728Z,6.16
2022-11-23T00:46:14.823Z,6.06
2022-11-23T00:46:54.744Z,6.09
2022-11-23T00:47:41.759Z,6.05
2022-11-23T00:48:36.714Z,6.10
2022-11-23T00:49:32.027Z,6.12
2022-11-23T00:50:25.740Z,6.04
2022-11-23T00:51:23.742Z,6.03
2022-11-23T00:52:17.717Z,6.07
2022-11-23T00:53:04.783Z,6.04
2022-11-23T00:53:38.784Z,5.92
2022-11-23T00:54:25.715Z,5.99
2022-11-23T00:54:59.790Z,5.98
2022-11-23T00:55:46.708Z,5.93
2022-11-23T00:56:20.811Z,5.91
2022-11-23T00:57:07.716Z,5.87
2022-11-23T00:57:41.787Z,5.92
2022-11-23T00:58:28.747Z,5.88
2022-11-23T00:59:04.828Z,5.81
2022-11-23T00:59:51.711Z,5.83
2022-11-23T01:00:25.785Z,5.83
2022-11-23T01:01:21.736Z,5.84
2022-11-23T01:01:55.833Z,5.83
2022-11-23T01:02:42.692Z,5.74
2022-11-23T01:03:16.730Z,5.75
2022-11-23T01:04:01.732Z,5.77
2022-11-23T01:04:41.743Z,5.80
2022-11-23T01:05:21.699Z,5.73
2022-11-23T01:06:01.790Z,5.66
2022-11-23T01:06:46.696Z,5.71
2022-11-23T01:07:26.843Z,5.70
2022-11-23T01:08:06.684Z,5.74
2022-11-23T01:08:47.824Z,5.71
2022-11-23T01:09:31.975Z,5.72
2022-11-23T01:10:13.869Z,5.66
2022-11-23T01:10:54.720Z,5.69
2022-11-23T01:11:37.818Z,5.66
2022-11-23T01:12:18.696Z,5.66
2022-11-23T01:12:58.791Z,5.66
2022-11-23T01:13:39.687Z,5.68
2022-11-23T01:14:19.764Z,5.68
2022-11-23T01:15:00.729Z,5.69
2022-11-23T01:15:40.717Z,5.68
2022-11-23T01:16:32.701Z,5.70
2022-11-23T01:17:13.130Z,5.70
2022-11-23T01:17:53.689Z,5.74
2022-11-23T01:18:33.727Z,5.73
2022-11-23T01:19:18.690Z,5.69
2022-11-23T01:19:58.776Z,5.71
2022-11-23T01:20:38.709Z,5.70
2022-11-23T01:21:18.717Z,5.73
2022-11-23T01:21:59.671Z,5.76
2022-11-23T01:22:39.723Z,5.70
2022-11-23T01:23:19.682Z,5.70
2022-11-23T01:23:59.736Z,5.66
2022-11-23T01:24:39.684Z,5.74
2022-11-23T01:25:19.764Z,5.66
2022-11-23T01:25:59.715Z,5.77
2022-11-23T01:26:39.700Z,5.68
2022-11-23T01:27:20.658Z,5.74
2022-11-23T01:28:00.709Z,5.78
2022-11-23T01:28:41.668Z,5.73
2022-11-23T01:29:21.765Z,5.81
2022-11-23T01:30:01.717Z,5.82
2022-11-23T01:30:42.818Z,5.82
2022-11-23T01:31:29.702Z,5.83
2022-11-23T01:32:09.832Z,5.82
2022-11-23T01:32:50.664Z,5.86
2022-11-23T01:33:30.823Z,5.82
2022-11-23T01:34:10.680Z,5.80
2022-11-23T01:34:50.679Z,5.78
2022-11-23T01:35:30.653Z,5.73
2022-11-23T01:36:26.751Z,5.69
2022-11-23T01:37:07.707Z,5.70
2022-11-23T01:37:47.720Z,5.65
2022-11-23T01:38:28.726Z,5.71
2022-11-23T01:39:10.774Z,5.74
2022-11-23T01:39:50.657Z,5.76
2022-11-23T01:40:30.845Z,5.75
2022-11-23T01:41:13.671Z,5.75
2022-11-23T01:41:53.757Z,5.76
2022-11-23T01:43:03.722Z,5.75
2022-11-23T01:43:43.722Z,5.72
2022-11-23T01:44:44.720Z,5.69
2022-11-23T01:45:47.707Z,5.70
2022-11-23T01:46:27.648Z,5.68
2022-11-23T01:47:13.756Z,5.69
2022-11-23T01:47:54.640Z,5.70
2022-11-23T01:48:45.678Z,5.74
2022-11-23T01:49:19.710Z,5.70
2022-11-23T01:50:06.656Z,5.72
2022-11-23T01:50:40.721Z,5.70
2022-11-23T01:51:37.654Z,5.68
2022-11-23T01:52:28.772Z,5.63
2022-11-23T01:53:15.639Z,5.57
2022-11-23T01:53:56.679Z,5.66
2022-11-23T01:55:08.331Z,5.64
2022-11-23T01:56:03.650Z,5.64
2022-11-23T01:57:03.644Z,5.54
2022-11-23T01:57:58.644Z,5.65
2022-11-23T01:58:54.645Z,5.65
2022-11-23T01:59:35.672Z,5.59
2022-11-23T02:00:16.708Z,5.63
2022-11-23T02:00:57.684Z,5.50
2022-11-23T02:01:37.935Z,5.57
2022-11-23T02:02:18.662Z,5.56
2022-11-23T02:03:04.758Z,5.57
2022-11-23T02:03:45.655Z,5.55
2022-11-23T02:04:37.658Z,5.59
2022-11-23T02:05:12.675Z,5.54
2022-11-23T02:06:06.628Z,5.60
2022-11-23T02:06:40.667Z,5.56
2022-11-23T02:07:28.667Z,5.58
2022-11-23T02:08:02.695Z,5.57
2022-11-23T02:08:49.666Z,5.59
2022-11-23T02:09:23.675Z,5.55
2022-11-23T02:10:04.681Z,5.58
2022-11-23T02:10:44.753Z,5.58
2022-11-23T02:11:24.624Z,5.60
2022-11-23T02:12:05.839Z,5.64
2022-11-23T02:12:45.814Z,5.63
2022-11-23T02:13:25.699Z,5.62
2022-11-23T02:14:06.624Z,5.65
2022-11-23T02:14:48.868Z,5.63
2022-11-23T02:15:29.693Z,5.58
2022-11-23T02:16:09.677Z,5.57
2022-11-23T02:16:50.664Z,5.56
2022-11-23T02:17:30.668Z,5.54
2022-11-23T02:18:22.648Z,5.56
2022-11-23T02:19:02.889Z,5.54
2022-11-23T02:20:15.642Z,5.60
2022-11-23T02:20:56.636Z,5.59
2022-11-23T02:21:30.717Z,5.53
2022-11-23T02:22:43.644Z,5.60
2022-11-23T02:23:56.780Z,5.55
2022-11-23T02:24:53.628Z,5.49
2022-11-23T02:25:51.725Z,5.53
2022-11-23T02:26:40.627Z,5.44
2022-11-23T02:27:21.636Z,5.46
2022-11-23T02:28:01.689Z,5.52
2022-11-23T02:28:57.025Z,5.51
2022-11-23T02:29:37.616Z,5.51
2022-11-23T02:30:18.743Z,5.57
2022-11-23T02:31:01.608Z,5.55
2022-11-23T02:31:48.657Z,5.55
2022-11-23T02:32:43.670Z,5.60
2022-11-23T02:33:37.596Z,5.53
2022-11-23T02:34:32.652Z,5.60
2022-11-23T02:35:26.607Z,5.63
2022-11-23T02:36:58.647Z,5.62
2022-11-23T02:37:53.624Z,5.61
2022-11-23T02:38:47.610Z,5.68
2022-11-23T02:39:52.665Z,5.69
2022-11-23T02:40:49.661Z,5.74
2022-11-23T02:41:57.617Z,5.66
2022-11-23T02:42:38.617Z,5.60
2022-11-23T02:43:18.807Z,5.64
2022-11-23T02:44:03.613Z,5.59
2022-11-23T02:45:30.081Z,5.63
2022-11-23T02:46:10.607Z,5.52
2022-11-23T02:46:50.662Z,5.57
2022-11-23T02:47:31.614Z,5.64
2022-11-23T02:48:11.672Z,5.66
2022-11-23T02:48:51.601Z,5.60
2022-11-23T02:49:31.964Z,5.68
2022-11-23T02:50:12.607Z,5.70
2022-11-23T02:50:52.695Z,5.68
2022-11-23T02:51:32.572Z,5.70
2022-11-23T02:52:13.658Z,5.77
2022-11-23T02:52:53.601Z,5.77
2022-11-23T02:53:33.868Z,5.75
2022-11-23T02:54:14.621Z,5.77
2022-11-23T02:54:54.651Z,5.74
2022-11-23T02:55:35.592Z,5.68
2022-11-23T02:56:16.676Z,5.73
2022-11-23T02:56:56.600Z,5.75
2022-11-23T02:57:36.636Z,5.74
2022-11-23T02:58:17.629Z,5.62
2022-11-23T02:58:57.599Z,5.66
2022-11-23T02:59:38.559Z,5.69
2022-11-23T03:00:19.606Z,5.63
2022-11-23T03:00:59.634Z,5.61
2022-11-23T03:01:40.709Z,5.69
2022-11-23T03:02:20.617Z,5.70
2022-11-23T03:03:00.665Z,5.65
2022-11-23T03:03:40.617Z,5.63
2022-11-23T03:04:27.330Z,5.51
2022-11-23T03:05:08.720Z,5.63
2022-11-23T03:05:48.603Z,5.64
2022-11-23T03:06:28.557Z,5.65
2022-11-23T03:07:08.693Z,5.68
2022-11-23T03:07:48.645Z,5.69
2022-11-23T03:08:28.610Z,5.66
2022-11-23T03:09:08.607Z,5.62
2022-11-23T03:09:48.757Z,5.64
2022-11-23T03:10:29.598Z,5.55
2022-11-23T03:11:10.778Z,5.68
2022-11-23T03:11:51.637Z,5.63
2022-11-23T03:12:32.672Z,5.64
2022-11-23T03:13:12.578Z,5.70
2022-11-23T03:13:52.640Z,5.60
2022-11-23T03:14:33.614Z,5.65
2022-11-23T03:15:14.651Z,5.65
2022-11-23T03:15:54.576Z,5.64
2022-11-23T03:16:34.687Z,5.67
2022-11-23T03:17:14.539Z,5.70
2022-11-23T03:17:54.657Z,5.73
2022-11-23T03:18:35.569Z,5.68
2022-11-23T03:19:15.631Z,5.64
2022-11-23T03:19:56.566Z,5.72
2022-11-23T03:20:36.705Z,5.83
2022-11-23T03:21:17.581Z,5.78
2022-11-23T03:21:58.622Z,5.70
2022-11-23T03:22:39.557Z,5.73
2022-11-23T03:23:19.632Z,5.73
2022-11-23T03:24:01.579Z,5.68
2022-11-23T03:24:41.607Z,5.77
2022-11-23T03:25:22.575Z,5.68
2022-11-23T03:26:11.308Z,5.83
2022-11-23T03:26:52.558Z,5.77
2022-11-23T03:27:33.661Z,5.71
2022-11-23T03:28:14.566Z,5.86
2022-11-23T03:28:54.679Z,5.84
2022-11-23T03:29:34.739Z,5.84
2022-11-23T03:30:16.592Z,5.84
2022-11-23T03:30:57.564Z,5.89
2022-11-23T03:31:37.643Z,5.92
2022-11-23T03:32:18.535Z,5.91
2022-11-23T03:32:58.610Z,5.73
2022-11-23T03:33:39.640Z,5.78
2022-11-23T03:34:19.829Z,5.84
2022-11-23T03:34:59.537Z,5.86
2022-11-23T03:35:39.652Z,5.81
2022-11-23T03:36:19.578Z,5.85
2022-11-23T03:36:59.613Z,5.83
2022-11-23T03:37:40.544Z,5.82
2022-11-23T03:38:20.575Z,5.80
2022-11-23T03:39:00.526Z,5.86
2022-11-23T03:39:45.785Z,5.88
2022-11-23T03:40:27.527Z,5.88
2022-11-23T03:41:07.577Z,5.78
2022-11-23T03:41:47.686Z,5.88
2022-11-23T03:42:28.615Z,5.79
2022-11-23T03:43:09.519Z,5.88
2022-11-23T03:43:49.584Z,5.91
2022-11-23T03:44:30.531Z,5.93
2022-11-23T03:45:11.651Z,5.89
2022-11-23T03:45:52.525Z,5.99
2022-11-23T03:46:32.721Z,6.00
2022-11-23T03:47:19.547Z,6.01
2022-11-23T03:47:53.574Z,6.05
2022-11-23T03:48:40.526Z,6.00
2022-11-23T03:49:14.604Z,6.01
2022-11-23T03:50:01.510Z,6.02
2022-11-23T03:50:35.577Z,6.00
2022-11-23T03:51:22.513Z,6.02
2022-11-23T03:51:56.754Z,5.93
2022-11-23T03:52:43.564Z,5.99
2022-11-23T03:53:17.577Z,5.92
2022-11-23T03:54:04.560Z,5.99
2022-11-23T03:54:38.712Z,5.86
2022-11-23T03:55:26.555Z,5.88
2022-11-23T03:56:00.585Z,5.91
2022-11-23T03:56:47.528Z,5.86
2022-11-23T03:57:21.674Z,5.89
2022-11-23T03:58:09.543Z,5.85
2022-11-23T03:58:43.558Z,5.93
2022-11-23T03:59:30.777Z,5.96
2022-11-23T04:00:04.604Z,5.91
2022-11-23T04:00:51.659Z,6.01
2022-11-23T04:01:26.183Z,6.02
2022-11-23T04:02:14.524Z,6.05
2022-11-23T04:02:49.648Z,6.08
2022-11-23T04:03:29.571Z,5.96
2022-11-23T04:04:09.642Z,6.03
2022-11-23T04:04:49.510Z,6.05
2022-11-23T04:05:30.558Z,6.09
2022-11-23T04:06:11.521Z,6.11
2022-11-23T04:06:51.760Z,6.06
2022-11-23T04:07:31.588Z,6.10
2022-11-23T04:08:25.512Z,6.05
2022-11-23T04:09:05.525Z,6.06
2022-11-23T04:09:45.538Z,5.97
2022-11-23T04:10:26.518Z,6.01
2022-11-23T04:11:06.548Z,6.02
2022-11-23T04:11:46.482Z,6.05
2022-11-23T04:12:26.613Z,6.04
2022-11-23T04:13:06.521Z,6.00
2022-11-23T04:13:46.627Z,5.98
2022-11-23T04:14:26.522Z,5.96
2022-11-23T04:15:06.541Z,5.94
2022-11-23T04:15:47.579Z,5.87
2022-11-23T04:16:27.603Z,5.82
2022-11-23T04:17:08.523Z,5.81
2022-11-23T04:17:48.541Z,5.85
2022-11-23T04:18:29.471Z,5.76
2022-11-23T04:19:09.776Z,5.83
2022-11-23T04:19:49.506Z,5.89
2022-11-23T04:20:29.541Z,5.90
2022-11-23T04:21:09.483Z,5.93
2022-11-23T04:22:03.491Z,5.88
2022-11-23T04:22:57.478Z,5.87
2022-11-23T04:23:51.491Z,5.95
2022-11-23T04:24:45.478Z,5.95
2022-11-23T04:25:26.520Z,5.99
2022-11-23T04:26:06.607Z,6.00
2022-11-23T04:26:46.514Z,5.98
2022-11-23T04:27:26.519Z,5.90
2022-11-23T04:28:06.516Z,5.86
2022-11-23T04:28:46.585Z,5.83
2022-11-23T04:29:26.474Z,5.83
2022-11-23T04:30:06.617Z,5.96
2022-11-23T04:30:47.479Z,5.92
2022-11-23T04:31:27.526Z,5.90
2022-11-23T04:32:07.509Z,5.98
2022-11-23T04:32:47.586Z,5.99
2022-11-23T04:33:27.481Z,5.92
2022-11-23T04:34:07.723Z,5.93
2022-11-23T04:34:48.483Z,5.92
2022-11-23T04:35:28.523Z,5.91
2022-11-23T04:36:08.484Z,5.95
2022-11-23T04:36:48.516Z,5.94
2022-11-23T04:37:28.460Z,5.95
2022-11-23T04:38:08.536Z,5.96
2022-11-23T04:38:48.504Z,5.99
2022-11-23T04:39:28.555Z,6.00
2022-11-23T04:40:09.477Z,6.04
2022-11-23T04:40:50.808Z,6.02
2022-11-23T04:41:31.682Z,5.94
2022-11-23T04:42:12.577Z,5.92
2022-11-23T04:42:53.227Z,5.97
2022-11-23T04:43:33.503Z,6.03
2022-11-23T04:44:14.456Z,5.94
2022-11-23T04:44:55.005Z,5.93
2022-11-23T04:45:34.468Z,5.95
2022-11-23T04:46:15.536Z,5.93
2022-11-23T04:46:56.495Z,5.94
2022-11-23T04:47:36.578Z,5.94
2022-11-23T04:48:16.450Z,5.90
2022-11-23T04:48:56.539Z,5.94
2022-11-23T04:49:37.440Z,5.93
2022-11-23T04:50:17.516Z,5.90
2022-11-23T04:50:57.457Z,5.94
2022-11-23T04:51:37.573Z,5.93
2022-11-23T04:52:18.507Z,5.94
2022-11-23T04:52:58.497Z,5.89
2022-11-23T04:53:39.484Z,5.97
2022-11-23T04:54:19.498Z,5.97
2022-11-23T04:54:59.499Z,5.81
2022-11-23T04:55:39.503Z,5.97
2022-11-23T04:56:19.444Z,6.00
2022-11-23T04:56:59.707Z,6.00
2022-11-23T04:57:39.451Z,6.03
2022-11-23T04:58:19.516Z,6.02
2022-11-23T04:58:59.449Z,6.04
2022-11-23T04:59:39.616Z,6.00
2022-11-23T05:00:20.660Z,5.93
2022-11-23T05:01:01.622Z,5.95
2022-11-23T05:01:42.454Z,5.84
2022-11-23T05:02:22.662Z,5.80
2022-11-23T05:03:07.480Z,5.82
2022-11-23T05:03:47.595Z,5.75
2022-11-23T05:04:27.469Z,5.73
2022-11-23T05:05:07.533Z,5.67
2022-11-23T05:05:48.445Z,5.65
2022-11-23T05:06:28.556Z,5.64
2022-11-23T05:07:09.503Z,5.66
2022-11-23T05:07:49.541Z,5.60
2022-11-23T05:08:29.511Z,5.64
2022-11-23T05:09:09.472Z,5.65
2022-11-23T05:09:50.467Z,5.64
2022-11-23T05:10:31.528Z,5.72
2022-11-23T05:11:12.460Z,5.59
2022-11-23T05:11:52.611Z,5.55
2022-11-23T05:12:33.438Z,5.46
2022-11-23T05:13:13.504Z,5.52
2022-11-23T05:13:53.458Z,5.50
2022-11-23T05:14:33.474Z,5.53
2022-11-23T05:15:14.464Z,5.62
2022-11-23T05:15:54.467Z,5.64
2022-11-23T05:16:34.414Z,5.65
2022-11-23T05:17:14.526Z,5.66
2022-11-23T05:17:58.976Z,5.64
2022-11-23T05:18:39.471Z,5.65
2022-11-23T05:19:19.452Z,5.68
2022-11-23T05:19:59.618Z,5.72
2022-11-23T05:20:41.431Z,5.63
2022-11-23T05:21:21.726Z,5.68
2022-11-23T05:22:02.444Z,5.65
2022-11-23T05:22:42.464Z,5.64
2022-11-23T05:23:22.460Z,5.65
2022-11-23T05:24:02.493Z,5.59
2022-11-23T05:24:42.482Z,5.64
2022-11-23T05:25:22.454Z,5.62
2022-11-23T05:26:02.458Z,5.60
2022-11-23T05:26:42.459Z,5.58
2022-11-23T05:27:22.429Z,5.61
2022-11-23T05:28:16.648Z,5.59
2022-11-23T05:29:02.412Z,5.65
2022-11-23T05:29:50.432Z,5.64
2022-11-23T05:30:44.428Z,5.62
2022-11-23T05:31:38.443Z,5.57
2022-11-23T05:32:33.416Z,5.61
2022-11-23T05:33:28.451Z,5.59
2022-11-23T05:34:22.411Z,5.60
2022-11-23T05:35:10.441Z,5.65
2022-11-23T05:35:44.473Z,5.64
2022-11-23T05:36:31.414Z,5.70
2022-11-23T05:37:05.507Z,5.66
2022-11-23T05:37:52.427Z,5.61
2022-11-23T05:38:26.444Z,5.63
2022-11-23T05:39:14.417Z,5.65
2022-11-23T05:39:48.468Z,5.64
2022-11-23T05:40:35.448Z,5.67
2022-11-23T05:41:09.538Z,5.64
2022-11-23T05:41:57.433Z,5.72
2022-11-23T05:42:31.631Z,5.70
2022-11-23T05:43:18.484Z,5.69
2022-11-23T05:43:52.587Z,5.74
2022-11-23T05:44:40.412Z,5.81
2022-11-23T05:45:14.547Z,5.84
2022-11-23T05:45:54.448Z,5.85
2022-11-23T05:46:34.542Z,5.85
2022-11-23T05:47:14.386Z,5.82
2022-11-23T05:48:05.452Z,5.84
2022-11-23T05:48:46.399Z,5.82
2022-11-23T05:49:26.425Z,5.88
2022-11-23T05:50:06.408Z,5.88
2022-11-23T05:50:46.553Z,5.77
2022-11-23T05:51:26.444Z,5.76
2022-11-23T05:52:06.472Z,5.80
2022-11-23T05:52:46.447Z,5.73
2022-11-23T05:53:26.427Z,5.79
2022-11-23T05:54:08.415Z,5.87
2022-11-23T05:54:48.448Z,5.84
2022-11-23T05:55:28.397Z,5.75
2022-11-23T05:56:09.494Z,5.77
2022-11-23T05:56:50.437Z,5.76
2022-11-23T05:57:30.438Z,5.79
2022-11-23T05:58:11.383Z,5.78
2022-11-23T05:58:51.480Z,5.72
2022-11-23T05:59:31.749Z,5.69
2022-11-23T06:00:14.481Z,5.75
2022-11-23T06:00:54.383Z,5.77
2022-11-23T06:01:34.557Z,5.80
2022-11-23T06:02:15.397Z,5.80
2022-11-23T06:02:55.480Z,5.82
2022-11-23T06:03:35.496Z,5.73
2022-11-23T06:04:15.591Z,5.79
2022-11-23T06:04:55.404Z,5.82
2022-11-23T06:05:36.548Z,5.80
2022-11-23T06:06:17.386Z,5.81
2022-11-23T06:07:01.154Z,5.80
2022-11-23T06:07:42.449Z,5.81
2022-11-23T06:08:22.426Z,5.85
2022-11-23T06:09:02.357Z,5.85
2022-11-23T06:09:42.663Z,5.90
2022-11-23T06:10:22.387Z,5.88
2022-11-23T06:11:02.466Z,5.94
2022-11-23T06:11:43.411Z,5.93
2022-11-23T06:12:23.416Z,5.98
2022-11-23T06:13:10.423Z,5.99
2022-11-23T06:13:54.457Z,5.99
2022-11-23T06:14:34.355Z,5.99
2022-11-23T06:15:15.416Z,6.00
2022-11-23T06:15:56.394Z,5.98
2022-11-23T06:16:36.466Z,5.94
2022-11-23T06:17:16.384Z,5.95
2022-11-23T06:17:56.405Z,6.00
2022-11-23T06:18:36.392Z,5.94
2022-11-23T06:19:16.643Z,5.95
2022-11-23T06:19:57.368Z,5.91
2022-11-23T06:20:37.409Z,5.95
2022-11-23T06:21:17.391Z,5.89
2022-11-23T06:21:57.444Z,5.92
2022-11-23T06:22:38.424Z,5.96
2022-11-23T06:23:18.527Z,5.94
2022-11-23T06:23:59.398Z,5.99
2022-11-23T06:24:40.425Z,6.03
2022-11-23T06:25:21.378Z,6.04
2022-11-23T06:26:01.563Z,6.04
2022-11-23T06:26:42.383Z,6.03
2022-11-23T06:27:22.471Z,6.05
2022-11-23T06:28:06.365Z,6.05
2022-11-23T06:28:46.426Z,6.05
2022-11-23T06:29:27.371Z,6.08
2022-11-23T06:30:07.502Z,6.09
2022-11-23T06:30:48.388Z,6.08
2022-11-23T06:31:28.485Z,6.09
2022-11-23T06:32:09.366Z,6.02
2022-11-23T06:32:49.466Z,6.09
2022-11-23T06:33:29.356Z,6.06
2022-11-23T06:34:09.416Z,6.02
2022-11-23T06:34:50.385Z,6.08
2022-11-23T06:35:31.540Z,6.11
2022-11-23T06:36:12.372Z,5.94
2022-11-23T06:36:52.437Z,5.98
2022-11-23T06:37:32.359Z,5.99
2022-11-23T06:38:12.380Z,6.04
2022-11-23T06:38:52.360Z,6.03
2022-11-23T06:39:32.639Z,6.00
2022-11-23T06:40:13.383Z,5.95
2022-11-23T06:40:53.367Z,5.98
2022-11-23T06:41:33.340Z,5.96
2022-11-23T06:43:14.357Z,5.94
2022-11-23T06:43:54.393Z,5.98
2022-11-23T06:44:34.376Z,5.94
2022-11-23T06:45:22.359Z,5.98
2022-11-23T06:46:20.353Z,6.02
2022-11-23T06:47:17.677Z,6.03
2022-11-23T06:48:13.352Z,6.03
2022-11-23T06:49:07.405Z,6.06
2022-11-23T06:50:01.393Z,6.06
2022-11-23T06:50:41.356Z,6.05
2022-11-23T06:51:22.386Z,5.98
2022-11-23T06:52:02.377Z,6.07
2022-11-23T06:52:42.403Z,6.06
2022-11-23T06:53:23.344Z,6.02
2022-11-23T06:54:03.380Z,6.03
2022-11-23T06:54:43.324Z,5.96
2022-11-23T06:55:23.476Z,5.96
2022-11-23T06:56:07.376Z,5.93
2022-11-23T06:56:47.384Z,6.00
2022-11-23T06:57:27.357Z,5.99
2022-11-23T06:58:07.500Z,6.01
2022-11-23T06:58:49.310Z,5.98
2022-11-23T06:59:29.612Z,5.97
2022-11-23T07:00:11.371Z,6.00
2022-11-23T07:00:51.751Z,5.96
2022-11-23T07:01:31.453Z,5.99
2022-11-23T07:02:11.449Z,6.00
2022-11-23T07:02:59.353Z,6.00
2022-11-23T07:03:40.663Z,6.00
2022-11-23T07:04:20.345Z,5.95
2022-11-23T07:05:00.372Z,5.93
2022-11-23T07:05:40.332Z,5.97
2022-11-23T07:06:20.367Z,5.95
2022-11-23T07:07:00.341Z,5.91
2022-11-23T07:07:40.435Z,5.88
2022-11-23T07:08:21.348Z,5.89
2022-11-23T07:09:02.975Z,5.99
2022-11-23T07:09:44.336Z,6.02
2022-11-23T07:10:25.824Z,6.04
2022-11-23T07:11:13.321Z,6.04
2022-11-23T07:11:53.372Z,5.97
2022-11-23T07:12:34.360Z,5.97
2022-11-23T07:13:16.363Z,6.08
2022-11-23T07:13:56.311Z,6.06
2022-11-23T07:14:36.387Z,6.09
2022-11-23T07:15:17.319Z,6.15
2022-11-23T07:15:57.453Z,6.13
2022-11-23T07:16:37.339Z,6.19
2022-11-23T07:17:17.752Z,6.20
2022-11-23T07:17:57.372Z,6.22
2022-11-23T07:18:37.377Z,6.17
2022-11-23T07:19:18.321Z,6.00
2022-11-23T07:19:58.341Z,6.08
2022-11-23T07:20:38.299Z,6.06
2022-11-23T07:21:18.384Z,6.02
2022-11-23T07:21:59.377Z,5.99
2022-11-23T07:22:39.513Z,5.97
2022-11-23T07:23:19.343Z,5.95
2022-11-23T07:23:59.369Z,5.95
2022-11-23T07:24:43.952Z,5.94
2022-11-23T07:25:26.431Z,6.00
2022-11-23T07:26:09.309Z,5.98
2022-11-23T07:26:49.406Z,5.94
2022-11-23T07:27:30.329Z,5.76
2022-11-23T07:28:14.337Z,5.79
2022-11-23T07:28:54.336Z,5.90
2022-11-23T07:29:34.482Z,5.83
2022-11-23T07:30:16.344Z,5.79
2022-11-23T07:30:58.350Z,5.85
2022-11-23T07:31:39.293Z,5.88
2022-11-23T07:32:19.337Z,5.89
2022-11-23T07:33:00.287Z,5.93
2022-11-23T07:33:40.324Z,5.90
2022-11-23T07:34:20.342Z,5.86
2022-11-23T07:35:00.413Z,5.91
2022-11-23T07:35:42.303Z,5.96
2022-11-23T07:36:22.344Z,5.96
2022-11-23T07:37:03.311Z,5.89
2022-11-23T07:37:43.353Z,5.88
2022-11-23T07:38:23.303Z,5.88
2022-11-23T07:39:03.417Z,5.89
2022-11-23T07:39:56.991Z,5.86
2022-11-23T07:40:38.400Z,5.90
2022-11-23T07:41:18.330Z,5.96
2022-11-23T07:42:30.560Z,5.82
2022-11-23T07:42:58.289Z,5.95
2022-11-23T07:43:39.344Z,5.99
2022-11-23T07:44:19.304Z,5.94
2022-11-23T07:44:59.319Z,6.03
2022-11-23T07:45:34.401Z,5.94
2022-11-23T07:46:21.309Z,5.94
2022-11-23T07:46:55.361Z,5.95
2022-11-23T07:47:42.336Z,6.01
2022-11-23T07:48:17.403Z,6.01
2022-11-23T07:49:07.290Z,6.02
2022-11-23T07:49:41.357Z,6.02
2022-11-23T07:50:22.303Z,6.03
2022-11-23T07:51:02.358Z,6.03
2022-11-23T07:51:42.299Z,6.08
2022-11-23T07:52:22.542Z,6.10
2022-11-23T07:53:03.277Z,6.08
2022-11-23T07:53:43.329Z,6.12
2022-11-23T07:54:24.279Z,6.12
2022-11-23T07:55:04.352Z,6.13
2022-11-23T07:55:44.299Z,6.06
2022-11-23T07:56:24.346Z,6.04
2022-11-23T07:57:04.273Z,6.01
2022-11-23T07:57:44.311Z,6.06
2022-11-23T07:58:25.275Z,6.03
2022-11-23T07:59:05.385Z,5.92
2022-11-23T07:59:46.254Z,5.94
2022-11-23T08:00:30.361Z,5.86
2022-11-23T08:01:11.293Z,5.90
2022-11-23T08:01:57.032Z,5.89
2022-11-23T08:02:52.803Z,5.86
2022-11-23T08:03:40.380Z,5.95
2022-11-23T08:04:20.255Z,5.87
2022-11-23T08:05:00.320Z,5.95
2022-11-23T08:05:42.262Z,5.99
2022-11-23T08:06:30.310Z,5.91
2022-11-23T08:07:24.338Z,5.85
2022-11-23T08:08:19.296Z,5.89
2022-11-23T08:09:13.273Z,5.90
2022-11-23T08:10:07.274Z,5.93
2022-11-23T08:11:01.248Z,5.98
2022-11-23T08:11:49.276Z,5.90
2022-11-23T08:12:23.429Z,5.98
2022-11-23T08:13:12.295Z,5.88
2022-11-23T08:13:46.351Z,6.00
2022-11-23T08:14:33.500Z,5.95
2022-11-23T08:15:07.371Z,6.04
2022-11-23T08:15:55.685Z,6.01
2022-11-23T08:16:31.019Z,6.05
2022-11-23T08:17:12.287Z,6.03
2022-11-23T08:17:52.573Z,6.04
2022-11-23T08:18:33.252Z,6.10
2022-11-23T08:19:13.288Z,6.12
2022-11-23T08:19:53.280Z,6.15
2022-11-23T08:20:35.301Z,6.15
2022-11-23T08:21:15.271Z,6.07
2022-11-23T08:21:55.292Z,6.02
2022-11-23T08:22:35.316Z,6.01
2022-11-23T08:23:15.355Z,6.01
2022-11-23T08:23:55.253Z,5.95
2022-11-23T08:24:35.565Z,5.91
2022-11-23T08:25:16.244Z,6.01
2022-11-23T08:25:56.724Z,5.98
2022-11-23T08:26:37.270Z,6.05
2022-11-23T08:27:17.547Z,6.01
2022-11-23T08:28:11.270Z,6.11
2022-11-23T08:28:51.420Z,6.11
2022-11-23T08:29:31.265Z,6.11
2022-11-23T08:30:12.323Z,6.17
2022-11-23T08:30:53.258Z,6.18
2022-11-23T08:31:34.293Z,6.12
2022-11-23T08:32:15.249Z,6.04
2022-11-23T08:32:55.383Z,5.98
2022-11-23T08:33:35.275Z,5.94
2022-11-23T08:34:15.391Z,6.08
2022-11-23T08:34:55.240Z,6.08
2022-11-23T08:35:36.417Z,6.10
2022-11-23T08:36:17.268Z,6.13
2022-11-23T08:36:57.279Z,6.17
2022-11-23T08:37:37.225Z,6.21
2022-11-23T08:38:19.350Z,6.21
2022-11-23T08:39:01.267Z,6.18
2022-11-23T08:39:41.321Z,6.21
2022-11-23T08:40:25.397Z,6.22
2022-11-23T08:41:20.239Z,6.26
2022-11-23T08:42:14.260Z,6.15
2022-11-23T08:43:09.266Z,6.23
2022-11-23T08:44:04.251Z,6.13
2022-11-23T08:44:58.244Z,6.17
2022-11-23T08:45:52.244Z,6.17
2022-11-23T08:46:46.252Z,6.20
2022-11-23T08:47:40.243Z,6.20
2022-11-23T08:48:34.242Z,6.22
2022-11-23T08:49:21.253Z,6.18
2022-11-23T08:49:55.304Z,6.11
2022-11-23T08:50:43.219Z,6.19
2022-11-23T08:51:22.413Z,6.20
2022-11-23T08:52:09.271Z,6.16
2022-11-23T08:52:43.294Z,6.16
2022-11-23T08:53:30.250Z,6.24
2022-11-23T08:54:04.305Z,6.30
2022-11-23T08:54:44.245Z,6.30
2022-11-23T08:55:24.254Z,6.32
2022-11-23T08:56:08.217Z,6.31
2022-11-23T08:56:48.324Z,6.28
2022-11-23T08:57:29.216Z,6.25
2022-11-23T08:58:13.315Z,6.30
2022-11-23T08:58:54.250Z,6.21
2022-11-23T08:59:34.339Z,6.24
2022-11-23T09:00:16.246Z,6.24
2022-11-23T09:00:56.250Z,6.23
2022-11-23T09:01:36.292Z,6.26
2022-11-23T09:02:20.271Z,6.25
2022-11-23T09:03:01.218Z,6.27
2022-11-23T09:03:41.423Z,6.27
2022-11-23T09:04:21.210Z,6.31
2022-11-23T09:05:01.260Z,6.31
2022-11-23T09:05:45.236Z,6.34
2022-11-23T09:06:29.182Z,6.31
2022-11-23T09:07:10.250Z,6.29
2022-11-23T09:07:50.254Z,6.33
2022-11-23T09:08:30.195Z,6.32
2022-11-23T09:09:11.235Z,6.37
2022-11-23T09:09:51.238Z,6.25
2022-11-23T09:10:31.279Z,6.44
2022-11-23T09:11:15.231Z,6.45
2022-11-23T09:11:55.314Z,6.35
2022-11-23T09:12:36.252Z,6.32
2022-11-23T09:13:16.283Z,6.33
2022-11-23T09:13:56.236Z,6.30
2022-11-23T09:14:36.258Z,6.29
2022-11-23T09:15:17.220Z,6.33
2022-11-23T09:15:57.249Z,6.29
2022-11-23T09:16:38.200Z,6.35
2022-11-23T09:17:18.223Z,6.35
2022-11-23T09:17:58.172Z,6.35
2022-11-23T09:18:38.273Z,6.34
2022-11-23T09:19:20.386Z,6.37
2022-11-23T09:20:00.298Z,6.36
2022-11-23T09:20:41.216Z,6.40
2022-11-23T09:21:21.420Z,6.47
2022-11-23T09:22:01.231Z,6.51
2022-11-23T09:22:41.224Z,6.50
2022-11-23T09:23:21.190Z,6.53
2022-11-23T09:24:16.185Z,6.58
2022-11-23T09:25:10.269Z,6.60
2022-11-23T09:26:04.182Z,6.64
2022-11-23T09:26:58.195Z,6.63